createdAt,value
2019-01-30T14:21:35.163Z,35.75
2019-01-30T14:21:35.342Z,35.75
2019-01-30T14:21:35.554Z,35.75
2019-01-30T14:21:35.739Z,35.75
2019-01-30T14:21:35.921Z,35.75
2019-01-30T14:21:36.101Z,35.75
2019-01-30T14:21:36.328Z,35.75
2019-01-30T14:21:36.551Z,35.75
2019-01-30T14:21:36.737Z,35.75
2019-01-30T14:21:36.915Z,35.75
2019-01-30T14:21:37.096Z,35.75
2019-01-30T14:21:37.273Z,35.64
2019-01-30T14:21:37.487Z,35.75
2019-01-30T14:21:37.665Z,35.75
2019-01-30T14:21:37.884Z,35.64
2019-01-30T14:21:38.060Z,35.64
2019-01-30T14:21:38.240Z,35.64
2019-01-30T14:21:38.501Z,35.64
2019-01-30T14:21:38.717Z,35.64
2019-01-30T14:21:38.904Z,35.64
2019-01-30T14:21:39.095Z,35.64
2019-01-30T14:21:39.303Z,35.64
2019-01-30T14:21:39.480Z,35.64
2019-01-30T14:21:39.685Z,35.64
2019-01-30T14:21:39.866Z,35.64
2019-01-30T14:21:40.044Z,35.64
2019-01-30T14:21:40.263Z,35.64
2019-01-30T14:21:40.467Z,35.64
2019-01-30T14:21:40.644Z,35.64
2019-01-30T14:21:40.825Z,35.64
2019-01-30T14:21:41.002Z,35.64
2019-01-30T14:21:41.221Z,35.64
2019-01-30T14:21:41.395Z,35.64
2019-01-30T14:21:41.575Z,35.64
2019-01-30T14:21:41.834Z,35.55
2019-01-30T14:21:42.028Z,35.55
2019-01-30T14:21:42.254Z,35.64
2019-01-30T14:21:42.431Z,35.64
2019-01-30T14:21:42.611Z,35.55
2019-01-30T14:21:42.836Z,35.55
2019-01-30T14:21:43.022Z,35.55
2019-01-30T14:21:43.239Z,35.55
2019-01-30T14:21:43.424Z,35.55
2019-01-30T14:21:43.614Z,35.55
2019-01-30T14:21:43.788Z,35.55
2019-01-30T14:21:43.971Z,35.55
2019-01-30T14:21:44.188Z,35.55
2019-01-30T14:21:44.371Z,35.55
2019-01-30T14:21:44.551Z,35.55
2019-01-30T14:21:44.735Z,35.55
2019-01-30T14:21:44.915Z,35.55
2019-01-30T14:21:45.142Z,35.55
2019-01-30T14:21:45.339Z,35.55
2019-01-30T14:21:45.518Z,35.55
2019-01-30T14:21:45.704Z,35.55
2019-01-30T14:21:45.890Z,35.55
2019-01-30T14:21:46.066Z,35.55
2019-01-30T14:21:46.247Z,35.55
2019-01-30T14:21:46.475Z,35.55
2019-01-30T14:21:46.706Z,35.55
2019-01-30T14:21:46.886Z,35.55
2019-01-30T14:21:47.109Z,35.55
2019-01-30T14:21:47.290Z,35.55
2019-01-30T14:21:47.472Z,35.55
2019-01-30T14:21:47.659Z,35.55
2019-01-30T14:21:47.873Z,35.55
2019-01-30T14:21:48.058Z,35.55
2019-01-30T14:21:48.273Z,35.55
2019-01-30T14:21:48.568Z,35.55
2019-01-30T14:21:48.793Z,35.55
2019-01-30T14:21:48.974Z,35.55
2019-01-30T14:21:49.152Z,35.55
2019-01-30T14:21:49.366Z,35.44
2019-01-30T14:21:49.551Z,35.44
2019-01-30T14:21:49.737Z,35.44
2019-01-30T14:21:49.924Z,35.44
2019-01-30T14:21:50.177Z,35.44
2019-01-30T14:21:50.362Z,35.44
2019-01-30T14:21:50.542Z,35.44
2019-01-30T14:21:50.720Z,35.44
2019-01-30T14:21:50.907Z,35.44
2019-01-30T14:21:51.125Z,35.44
2019-01-30T14:21:51.384Z,35.44
2019-01-30T14:21:51.632Z,35.44
2019-01-30T14:21:51.812Z,35.44
2019-01-30T14:21:52.000Z,35.44
2019-01-30T14:21:52.222Z,35.44
2019-01-30T14:21:52.405Z,35.44
2019-01-30T14:21:52.615Z,35.44
2019-01-30T14:21:52.825Z,35.44
2019-01-30T14:21:53.055Z,35.44
2019-01-30T14:21:53.241Z,35.44
2019-01-30T14:21:53.454Z,35.44
2019-01-30T14:21:53.639Z,35.44
2019-01-30T14:21:53.819Z,35.44
2019-01-30T14:21:54.021Z,35.44
2019-01-30T14:21:54.200Z,35.35
2019-01-30T14:21:54.424Z,35.35
2019-01-30T14:21:54.608Z,35.35
2019-01-30T14:21:54.791Z,35.35
2019-01-30T14:21:54.970Z,35.35
2019-01-30T14:21:55.187Z,35.35
2019-01-30T14:21:55.363Z,35.35
2019-01-30T14:21:55.702Z,35.35
2019-01-30T14:21:55.882Z,35.35
2019-01-30T14:21:56.093Z,35.35
2019-01-30T14:21:56.273Z,35.35
2019-01-30T14:21:56.476Z,35.35
2019-01-30T14:21:56.657Z,35.35
2019-01-30T14:21:56.866Z,35.35
2019-01-30T14:21:57.049Z,35.35
2019-01-30T14:21:57.257Z,35.35
2019-01-30T14:21:57.435Z,35.35
2019-01-30T14:21:57.651Z,35.35
2019-01-30T14:21:57.833Z,35.35
2019-01-30T14:21:58.046Z,35.35
2019-01-30T14:21:58.224Z,35.35
2019-01-30T14:21:58.428Z,35.35
2019-01-30T14:21:58.674Z,35.35
2019-01-30T14:21:58.874Z,35.35
2019-01-30T14:21:59.078Z,35.35
2019-01-30T14:21:59.252Z,35.35
2019-01-30T14:21:59.430Z,35.35
2019-01-30T14:21:59.613Z,35.35
2019-01-30T14:21:59.819Z,35.35
2019-01-30T14:22:00.002Z,35.35
2019-01-30T14:22:00.181Z,35.35
2019-01-30T14:22:00.407Z,35.35
2019-01-30T14:22:00.588Z,35.35
2019-01-30T14:22:00.878Z,35.35
2019-01-30T14:22:12.596Z,35.35
2019-01-30T14:22:12.829Z,35.35
2019-01-30T14:22:12.997Z,35.35
2019-01-30T14:22:13.172Z,35.35
2019-01-30T14:22:13.338Z,35.35
2019-01-30T14:22:13.504Z,35.35
2019-01-30T14:22:13.710Z,35.35
2019-01-30T14:22:13.876Z,35.35
2019-01-30T14:22:14.035Z,35.35
2019-01-30T14:22:14.201Z,35.35
2019-01-30T14:22:14.364Z,35.35
2019-01-30T14:22:14.525Z,35.35
2019-01-30T14:22:14.687Z,35.35
2019-01-30T14:22:14.849Z,35.35
2019-01-30T14:22:15.050Z,35.35
2019-01-30T14:22:15.215Z,35.35
2019-01-30T14:22:15.374Z,35.35
2019-01-30T14:22:15.658Z,35.35
2019-01-30T14:22:15.835Z,35.25
2019-01-30T14:22:16.038Z,35.35
2019-01-30T14:22:16.201Z,35.25
2019-01-30T14:22:16.366Z,35.25
2019-01-30T14:22:16.530Z,35.35
2019-01-30T14:22:16.692Z,35.35
2019-01-30T14:22:16.856Z,35.25
2019-01-30T14:22:17.017Z,35.35
2019-01-30T14:22:17.189Z,35.35
2019-01-30T14:22:17.349Z,35.25
2019-01-30T14:22:17.551Z,35.25
2019-01-30T14:22:17.720Z,35.35
2019-01-30T14:22:17.882Z,35.35
2019-01-30T14:22:18.045Z,35.25
2019-01-30T14:22:18.212Z,35.35
2019-01-30T14:22:18.424Z,35.35
2019-01-30T14:22:18.611Z,35.25
2019-01-30T14:22:18.874Z,35.35
2019-01-30T14:22:19.037Z,35.35
2019-01-30T14:22:19.206Z,35.35
2019-01-30T14:22:19.367Z,35.35
2019-01-30T14:22:19.604Z,35.35
2019-01-30T14:22:19.773Z,35.35
2019-01-30T14:22:19.937Z,35.35
2019-01-30T14:22:20.099Z,35.35
2019-01-30T14:22:20.268Z,35.35
2019-01-30T14:22:20.437Z,35.35
2019-01-30T14:22:20.612Z,35.35
2019-01-30T14:22:20.777Z,35.35
2019-01-30T14:22:20.946Z,35.35
2019-01-30T14:22:21.179Z,35.35
2019-01-30T14:22:21.347Z,35.35
2019-01-30T14:22:21.506Z,35.35
2019-01-30T14:22:21.685Z,35.35
2019-01-30T14:22:21.878Z,35.35
2019-01-30T14:22:22.052Z,35.35
2019-01-30T14:22:22.337Z,35.35
2019-01-30T14:22:22.511Z,35.35
2019-01-30T14:22:22.673Z,35.35
2019-01-30T14:22:22.840Z,35.35
2019-01-30T14:22:23.012Z,35.35
2019-01-30T14:22:23.172Z,35.35
2019-01-30T14:22:23.341Z,35.35
2019-01-30T14:22:23.550Z,35.44
2019-01-30T14:22:23.710Z,35.44
2019-01-30T14:22:23.873Z,35.44
2019-01-30T14:22:24.039Z,35.44
2019-01-30T14:22:24.200Z,35.44
2019-01-30T14:22:24.373Z,35.44
2019-01-30T14:22:24.576Z,35.44
2019-01-30T14:22:24.740Z,35.44
2019-01-30T14:22:24.903Z,35.44
2019-01-30T14:22:25.064Z,35.44
2019-01-30T14:22:25.287Z,35.44
2019-01-30T14:22:25.453Z,35.44
2019-01-30T14:22:25.617Z,35.44
2019-01-30T14:22:25.787Z,35.44
2019-01-30T14:22:26.002Z,35.44
2019-01-30T14:22:26.177Z,35.44
2019-01-30T14:22:26.344Z,35.44
2019-01-30T14:22:26.508Z,35.44
2019-01-30T14:22:26.671Z,35.44
2019-01-30T14:22:26.840Z,35.44
2019-01-30T14:22:27.001Z,35.44
2019-01-30T14:22:27.166Z,35.44
2019-01-30T14:22:27.352Z,35.44
2019-01-30T14:22:27.522Z,35.44
2019-01-30T14:22:27.682Z,35.44
2019-01-30T14:22:27.846Z,35.44
2019-01-30T14:22:28.012Z,35.44
2019-01-30T14:22:28.215Z,35.44
2019-01-30T14:22:28.378Z,35.44
2019-01-30T14:22:28.543Z,35.44
2019-01-30T14:22:28.742Z,35.44
2019-01-30T14:22:28.909Z,35.44
2019-01-30T14:22:29.167Z,35.44
2019-01-30T14:22:29.334Z,35.44
2019-01-30T14:22:29.497Z,35.44
2019-01-30T14:22:29.677Z,35.44
2019-01-30T14:22:29.848Z,35.44
2019-01-30T14:22:30.014Z,35.44
2019-01-30T14:22:30.214Z,35.44
2019-01-30T14:22:30.387Z,35.44
2019-01-30T14:22:30.561Z,35.44
2019-01-30T14:22:30.730Z,35.44
2019-01-30T14:22:30.895Z,35.44
2019-01-30T14:22:31.062Z,35.44
2019-01-30T14:22:31.230Z,35.44
2019-01-30T14:22:31.402Z,35.44
2019-01-30T14:22:31.571Z,35.44
2019-01-30T14:22:31.744Z,35.44
2019-01-30T14:22:31.911Z,35.44
2019-01-30T14:22:32.084Z,35.44
2019-01-30T14:22:32.255Z,35.44
2019-01-30T14:22:32.554Z,35.44
2019-01-30T14:22:32.751Z,35.44
2019-01-30T14:22:32.914Z,35.44
2019-01-30T14:22:33.078Z,35.44
2019-01-30T14:22:33.245Z,35.44
2019-01-30T14:22:33.416Z,35.44
2019-01-30T14:22:33.583Z,35.44
2019-01-30T14:22:33.746Z,35.44
2019-01-30T14:22:33.909Z,35.44
2019-01-30T14:22:34.074Z,35.44
2019-01-30T14:22:34.238Z,35.35
2019-01-30T14:22:34.456Z,35.35
2019-01-30T14:22:34.629Z,35.35
2019-01-30T14:22:34.799Z,35.35
2019-01-30T14:22:34.970Z,35.35
2019-01-30T14:22:35.174Z,35.35
2019-01-30T14:22:35.339Z,35.35
2019-01-30T14:22:35.550Z,35.35
2019-01-30T14:22:35.815Z,35.35
2019-01-30T14:22:36.000Z,35.35
2019-01-30T14:22:36.216Z,35.35
2019-01-30T14:22:36.394Z,35.35
2019-01-30T14:22:36.567Z,35.25
2019-01-30T14:22:36.733Z,35.25
2019-01-30T14:22:36.947Z,35.25
2019-01-30T14:22:37.190Z,35.25
2019-01-30T14:22:37.366Z,35.25
2019-01-30T14:22:37.531Z,35.25
2019-01-30T14:22:37.694Z,35.35
2019-01-30T14:22:37.880Z,35.25
2019-01-30T14:22:38.089Z,35.25
2019-01-30T14:22:38.270Z,35.25
2019-01-30T14:22:38.447Z,35.25
2019-01-30T14:22:38.620Z,35.25
2019-01-30T14:22:38.784Z,35.25
2019-01-30T14:22:38.948Z,35.25
2019-01-30T14:22:39.110Z,35.25
2019-01-30T14:22:39.417Z,35.25
2019-01-30T14:22:39.597Z,35.25
2019-01-30T14:22:39.780Z,35.25
2019-01-30T14:22:39.946Z,35.35
2019-01-30T14:22:40.117Z,35.25
2019-01-30T14:22:40.280Z,35.25
2019-01-30T14:22:40.450Z,35.35
2019-01-30T14:22:40.611Z,35.35
2019-01-30T14:22:40.801Z,35.35
2019-01-30T14:22:40.997Z,35.35
2019-01-30T14:22:41.166Z,35.35
2019-01-30T14:22:41.329Z,35.35
2019-01-30T14:22:41.505Z,35.35
2019-01-30T14:22:41.672Z,35.35
2019-01-30T14:22:41.852Z,35.35
2019-01-30T14:22:42.019Z,35.35
2019-01-30T14:22:42.182Z,35.35
2019-01-30T14:22:42.352Z,35.35
2019-01-30T14:22:42.522Z,35.35
2019-01-30T14:22:42.718Z,35.35
2019-01-30T14:22:42.897Z,35.35
2019-01-30T14:22:43.066Z,35.35
2019-01-30T14:22:43.235Z,35.35
2019-01-30T14:22:43.410Z,35.35
2019-01-30T14:22:43.590Z,35.35
2019-01-30T14:22:43.748Z,35.35
2019-01-30T14:22:43.915Z,35.35
2019-01-30T14:22:44.078Z,35.35
2019-01-30T14:22:44.269Z,35.35
2019-01-30T14:22:44.438Z,35.35
2019-01-30T14:22:44.609Z,35.35
2019-01-30T14:22:44.795Z,35.35
2019-01-30T14:22:44.964Z,35.35
2019-01-30T14:22:45.132Z,35.35
2019-01-30T14:22:45.310Z,35.35
2019-01-30T14:22:45.489Z,35.35
2019-01-30T14:22:45.672Z,35.35
2019-01-30T14:22:45.839Z,35.35
2019-01-30T14:22:46.120Z,35.35
2019-01-30T14:22:46.290Z,35.35
2019-01-30T14:22:46.452Z,35.35
2019-01-30T14:22:46.616Z,35.35
2019-01-30T14:22:46.779Z,35.35
2019-01-30T14:22:46.944Z,35.35
2019-01-30T14:22:47.106Z,35.35
2019-01-30T14:22:47.268Z,35.35
2019-01-30T14:22:47.431Z,35.35
2019-01-30T14:22:47.599Z,35.35
2019-01-30T14:22:47.825Z,35.35
2019-01-30T14:22:47.993Z,35.35
2019-01-30T14:22:48.155Z,35.35
2019-01-30T14:22:48.320Z,35.35
2019-01-30T14:22:48.518Z,35.35
2019-01-30T14:22:48.693Z,35.35
2019-01-30T14:22:48.859Z,35.35
2019-01-30T14:22:49.020Z,35.35
2019-01-30T14:22:49.200Z,35.44
2019-01-30T14:22:49.513Z,35.44
2019-01-30T14:22:49.696Z,35.44
2019-01-30T14:22:49.871Z,35.44
2019-01-30T14:22:50.108Z,35.44
2019-01-30T14:22:50.281Z,35.44
2019-01-30T14:22:50.450Z,35.44
2019-01-30T14:22:50.617Z,35.44
2019-01-30T14:22:50.781Z,35.44
2019-01-30T14:22:50.951Z,35.44
2019-01-30T14:22:51.128Z,35.44
2019-01-30T14:22:51.300Z,35.44
2019-01-30T14:22:51.471Z,35.44
2019-01-30T14:22:51.638Z,35.44
2019-01-30T14:22:51.800Z,35.44
2019-01-30T14:22:51.965Z,35.44
2019-01-30T14:22:52.136Z,35.44
2019-01-30T14:22:52.325Z,35.44
2019-01-30T14:22:52.497Z,35.44
2019-01-30T14:22:52.778Z,35.44
2019-01-30T14:22:52.959Z,35.55
2019-01-30T14:22:53.136Z,35.55
2019-01-30T14:22:53.315Z,35.55
2019-01-30T14:22:53.478Z,35.55
2019-01-30T14:22:53.680Z,35.55
2019-01-30T14:22:53.937Z,35.55
2019-01-30T14:22:54.111Z,35.55
2019-01-30T14:22:54.278Z,35.55
2019-01-30T14:22:54.520Z,35.55
2019-01-30T14:22:54.729Z,35.55
2019-01-30T14:22:54.920Z,35.55
2019-01-30T14:22:55.088Z,35.55
2019-01-30T14:22:55.258Z,35.55
2019-01-30T14:22:55.431Z,35.55
2019-01-30T14:22:55.598Z,35.55
2019-01-30T14:22:55.761Z,35.55
2019-01-30T14:22:55.924Z,35.55
2019-01-30T14:22:56.084Z,35.55
2019-01-30T14:22:56.433Z,35.55
2019-01-30T14:22:56.612Z,35.55
2019-01-30T14:22:56.804Z,35.64
2019-01-30T14:22:56.970Z,35.64
2019-01-30T14:22:57.134Z,35.64
2019-01-30T14:22:57.296Z,35.64
2019-01-30T14:22:57.455Z,35.64
2019-01-30T14:22:57.659Z,35.64
2019-01-30T14:22:57.841Z,35.75
2019-01-30T14:22:58.002Z,35.75
2019-01-30T14:22:58.165Z,35.75
2019-01-30T14:22:58.328Z,35.75
2019-01-30T14:22:58.491Z,35.75
2019-01-30T14:22:58.654Z,35.85
2019-01-30T14:22:58.874Z,35.85
2019-01-30T14:22:59.041Z,35.94
2019-01-30T14:22:59.206Z,35.94
2019-01-30T14:22:59.377Z,35.94
2019-01-30T14:22:59.677Z,35.94
2019-01-30T14:22:59.882Z,36.05
2019-01-30T14:23:00.047Z,36.05
2019-01-30T14:23:00.212Z,36.05
2019-01-30T14:23:00.381Z,36.05
2019-01-30T14:23:00.553Z,36.05
2019-01-30T14:23:00.720Z,36.05
2019-01-30T14:23:00.903Z,36.05
2019-01-30T14:23:01.065Z,36.15
2019-01-30T14:23:01.261Z,36.05
2019-01-30T14:23:01.432Z,36.05
2019-01-30T14:23:01.601Z,36.05
2019-01-30T14:23:01.767Z,36.05
2019-01-30T14:23:01.942Z,36.05
2019-01-30T14:23:02.123Z,36.05
2019-01-30T14:23:02.299Z,36.15
2019-01-30T14:23:02.464Z,36.05
2019-01-30T14:23:02.634Z,36.05
2019-01-30T14:23:02.891Z,36.05
2019-01-30T14:23:03.078Z,36.05
2019-01-30T14:23:03.263Z,36.05
2019-01-30T14:23:03.473Z,36.05
2019-01-30T14:23:03.642Z,36.05
2019-01-30T14:23:03.807Z,36.05
2019-01-30T14:23:03.979Z,36.05
2019-01-30T14:23:04.155Z,36.05
2019-01-30T14:23:04.319Z,36.05
2019-01-30T14:23:04.483Z,36.05
2019-01-30T14:23:04.653Z,36.05
2019-01-30T14:23:04.815Z,36.05
2019-01-30T14:23:04.981Z,36.05
2019-01-30T14:23:05.145Z,36.05
2019-01-30T14:23:05.354Z,36.05
2019-01-30T14:23:05.536Z,35.94
2019-01-30T14:23:05.719Z,35.94
2019-01-30T14:23:05.933Z,35.94
2019-01-30T14:23:06.101Z,35.94
2019-01-30T14:23:06.306Z,35.94
2019-01-30T14:23:06.492Z,35.94
2019-01-30T14:23:06.670Z,35.94
2019-01-30T14:23:06.835Z,35.94
2019-01-30T14:23:07.009Z,35.94
2019-01-30T14:23:07.182Z,35.94
2019-01-30T14:23:07.349Z,35.94
2019-01-30T14:23:07.514Z,35.94
2019-01-30T14:23:07.677Z,35.94
2019-01-30T14:23:07.900Z,35.94
2019-01-30T14:23:08.073Z,35.94
2019-01-30T14:23:08.241Z,35.94
2019-01-30T14:23:08.416Z,35.85
2019-01-30T14:23:08.579Z,35.85
2019-01-30T14:23:08.791Z,35.85
2019-01-30T14:23:09.000Z,35.85
2019-01-30T14:23:09.170Z,35.85
2019-01-30T14:23:09.337Z,35.85
2019-01-30T14:23:09.501Z,35.85
2019-01-30T14:23:09.687Z,35.85
2019-01-30T14:23:09.873Z,35.85
2019-01-30T14:23:10.112Z,35.75
2019-01-30T14:23:10.287Z,35.75
2019-01-30T14:23:10.452Z,35.75
2019-01-30T14:23:10.624Z,35.75
2019-01-30T14:23:10.792Z,35.75
2019-01-30T14:23:10.962Z,35.75
2019-01-30T14:23:11.124Z,35.75
2019-01-30T14:23:11.332Z,35.75
2019-01-30T14:23:11.496Z,35.75
2019-01-30T14:23:11.669Z,35.75
2019-01-30T14:23:11.834Z,35.75
2019-01-30T14:23:12.040Z,35.75
2019-01-30T14:23:12.204Z,35.64
2019-01-30T14:23:12.371Z,35.64
2019-01-30T14:23:12.542Z,35.64
2019-01-30T14:23:12.756Z,35.64
2019-01-30T14:23:12.919Z,35.64
2019-01-30T14:23:13.100Z,35.64
2019-01-30T14:23:13.393Z,35.64
2019-01-30T14:23:13.581Z,35.64
2019-01-30T14:23:13.758Z,35.64
2019-01-30T14:23:13.931Z,35.64
2019-01-30T14:23:14.114Z,35.64
2019-01-30T14:23:14.303Z,35.64
2019-01-30T14:23:14.472Z,35.64
2019-01-30T14:23:14.637Z,35.55
2019-01-30T14:23:14.809Z,35.55
2019-01-30T14:23:15.004Z,35.55
2019-01-30T14:23:15.180Z,35.55
2019-01-30T14:23:15.346Z,35.55
2019-01-30T14:23:15.555Z,35.55
2019-01-30T14:23:15.724Z,35.55
2019-01-30T14:23:15.891Z,35.55
2019-01-30T14:23:16.054Z,35.55
2019-01-30T14:23:16.218Z,35.55
2019-01-30T14:23:16.391Z,35.55
2019-01-30T14:23:16.595Z,35.55
2019-01-30T14:23:16.760Z,35.55
2019-01-30T14:23:16.924Z,35.55
2019-01-30T14:23:17.104Z,35.55
2019-01-30T14:23:17.275Z,35.55
2019-01-30T14:23:17.441Z,35.55
2019-01-30T14:23:17.612Z,35.55
2019-01-30T14:23:17.820Z,35.55
2019-01-30T14:23:17.991Z,35.55
2019-01-30T14:23:18.158Z,35.55
2019-01-30T14:23:18.327Z,35.55
2019-01-30T14:23:18.539Z,35.55
2019-01-30T14:23:18.702Z,35.55
2019-01-30T14:23:18.868Z,35.55
2019-01-30T14:23:19.039Z,35.55
2019-01-30T14:23:19.235Z,35.55
2019-01-30T14:23:19.398Z,35.55
2019-01-30T14:23:19.565Z,35.55
2019-01-30T14:23:19.737Z,35.55
2019-01-30T14:23:19.898Z,35.55
2019-01-30T14:23:20.061Z,35.55
2019-01-30T14:23:20.238Z,35.55
2019-01-30T14:23:20.448Z,35.55
2019-01-30T14:23:20.617Z,35.55
2019-01-30T14:23:20.820Z,35.55
2019-01-30T14:23:21.015Z,35.55
2019-01-30T14:23:21.185Z,35.55
2019-01-30T14:23:21.347Z,35.55
2019-01-30T14:23:21.523Z,35.55
2019-01-30T14:23:21.687Z,35.55
2019-01-30T14:23:21.869Z,35.55
2019-01-30T14:23:22.038Z,35.55
2019-01-30T14:23:22.225Z,35.55
2019-01-30T14:23:22.403Z,35.55
2019-01-30T14:23:22.566Z,35.55
2019-01-30T14:23:22.735Z,35.55
2019-01-30T14:23:22.912Z,35.55
2019-01-30T14:23:23.076Z,35.55
2019-01-30T14:23:23.284Z,35.55
2019-01-30T14:23:23.489Z,35.55
2019-01-30T14:23:23.657Z,35.55
2019-01-30T14:23:23.823Z,35.55
2019-01-30T14:23:23.987Z,35.55
2019-01-30T14:23:24.181Z,35.55
2019-01-30T14:23:24.391Z,35.55
2019-01-30T14:23:24.603Z,35.55
2019-01-30T14:23:24.795Z,35.64
2019-01-30T14:23:24.966Z,35.64
2019-01-30T14:23:25.154Z,35.55
2019-01-30T14:23:25.359Z,35.55
2019-01-30T14:23:25.523Z,35.55
2019-01-30T14:23:25.714Z,35.64
2019-01-30T14:23:25.888Z,35.55
2019-01-30T14:23:26.055Z,35.64
2019-01-30T14:23:26.247Z,35.64
2019-01-30T14:23:26.418Z,35.64
2019-01-30T14:23:26.586Z,35.64
2019-01-30T14:23:26.751Z,35.64
2019-01-30T14:23:26.956Z,35.64
2019-01-30T14:23:27.128Z,35.64
2019-01-30T14:23:27.294Z,35.64
2019-01-30T14:23:27.503Z,35.64
2019-01-30T14:23:27.670Z,35.64
2019-01-30T14:23:27.835Z,35.64
2019-01-30T14:23:28.041Z,35.64
2019-01-30T14:23:28.223Z,35.64
2019-01-30T14:23:28.394Z,35.64
2019-01-30T14:23:28.559Z,35.64
2019-01-30T14:23:28.739Z,35.64
2019-01-30T14:23:28.910Z,35.64
2019-01-30T14:23:29.080Z,35.64
2019-01-30T14:23:29.246Z,35.64
2019-01-30T14:23:29.410Z,35.64
2019-01-30T14:23:29.576Z,35.64
2019-01-30T14:23:29.739Z,35.64
2019-01-30T14:23:29.911Z,35.64
2019-01-30T14:23:30.140Z,35.64
2019-01-30T14:23:30.309Z,35.64
2019-01-30T14:23:30.481Z,35.64
2019-01-30T14:23:30.652Z,35.64
2019-01-30T14:23:30.854Z,35.64
2019-01-30T14:23:31.020Z,35.64
2019-01-30T14:23:31.187Z,35.64
2019-01-30T14:23:31.394Z,35.64
2019-01-30T14:23:31.569Z,35.64
2019-01-30T14:23:31.754Z,35.64
2019-01-30T14:23:31.954Z,35.64
2019-01-30T14:23:32.129Z,35.64
2019-01-30T14:23:32.304Z,35.64
2019-01-30T14:23:32.468Z,35.64
2019-01-30T14:23:32.642Z,35.64
2019-01-30T14:23:32.850Z,35.64
2019-01-30T14:23:33.021Z,35.64
2019-01-30T14:23:33.184Z,35.64
2019-01-30T14:23:33.350Z,35.75
2019-01-30T14:23:33.511Z,35.64
2019-01-30T14:23:33.707Z,35.64
2019-01-30T14:23:33.872Z,35.75
2019-01-30T14:23:34.037Z,35.75
2019-01-30T14:23:34.201Z,35.75
2019-01-30T14:23:34.398Z,35.75
2019-01-30T14:23:34.562Z,35.64
2019-01-30T14:23:34.733Z,35.75
2019-01-30T14:23:35.061Z,35.75
2019-01-30T14:23:35.223Z,35.75
2019-01-30T14:23:35.385Z,35.75
2019-01-30T14:23:35.550Z,35.75
2019-01-30T14:23:35.716Z,35.75
2019-01-30T14:23:35.888Z,35.75
2019-01-30T14:23:36.054Z,35.75
2019-01-30T14:23:36.217Z,35.75
2019-01-30T14:23:36.422Z,35.75
2019-01-30T14:23:36.622Z,35.75
2019-01-30T14:23:36.811Z,35.75
2019-01-30T14:23:36.993Z,35.75
2019-01-30T14:23:37.189Z,35.64
2019-01-30T14:23:37.359Z,35.64
2019-01-30T14:23:37.521Z,35.64
2019-01-30T14:23:37.686Z,35.64
2019-01-30T14:23:37.849Z,35.64
2019-01-30T14:23:38.021Z,35.64
2019-01-30T14:23:38.308Z,35.64
2019-01-30T14:23:38.473Z,35.64
2019-01-30T14:23:38.635Z,35.64
2019-01-30T14:23:38.800Z,35.64
2019-01-30T14:23:39.006Z,35.64
2019-01-30T14:23:39.184Z,35.64
2019-01-30T14:23:39.347Z,35.64
2019-01-30T14:23:39.520Z,35.64
2019-01-30T14:23:39.734Z,35.64
2019-01-30T14:23:39.905Z,35.64
2019-01-30T14:23:40.077Z,35.64
2019-01-30T14:23:40.243Z,35.64
2019-01-30T14:23:40.422Z,35.64
2019-01-30T14:23:40.589Z,35.64
2019-01-30T14:23:40.780Z,35.64
2019-01-30T14:23:40.945Z,35.64
2019-01-30T14:23:41.116Z,35.64
2019-01-30T14:23:41.279Z,35.64
2019-01-30T14:23:41.544Z,35.64
2019-01-30T14:23:41.729Z,35.64
2019-01-30T14:23:41.897Z,35.64
2019-01-30T14:23:42.107Z,35.64
2019-01-30T14:23:42.275Z,35.64
2019-01-30T14:23:42.447Z,35.64
2019-01-30T14:23:42.615Z,35.64
2019-01-30T14:23:42.819Z,35.64
2019-01-30T14:23:42.995Z,35.64
2019-01-30T14:23:43.153Z,35.64
2019-01-30T14:23:43.332Z,35.64
2019-01-30T14:23:43.494Z,35.64
2019-01-30T14:23:43.658Z,35.64
2019-01-30T14:23:43.822Z,35.64
2019-01-30T14:23:43.991Z,35.64
2019-01-30T14:23:44.203Z,35.64
2019-01-30T14:23:44.372Z,35.64
2019-01-30T14:23:44.541Z,35.64
2019-01-30T14:23:44.705Z,35.64
2019-01-30T14:23:44.922Z,35.64
2019-01-30T14:23:45.114Z,35.64
2019-01-30T14:23:45.291Z,35.64
2019-01-30T14:23:45.454Z,35.64
2019-01-30T14:23:45.618Z,35.64
2019-01-30T14:23:45.794Z,35.64
2019-01-30T14:23:45.968Z,35.64
2019-01-30T14:23:46.129Z,35.64
2019-01-30T14:23:46.292Z,35.64
2019-01-30T14:23:46.456Z,35.64
2019-01-30T14:23:46.621Z,35.64
2019-01-30T14:23:46.786Z,35.64
2019-01-30T14:23:46.950Z,35.64
2019-01-30T14:23:47.112Z,35.64
2019-01-30T14:23:47.287Z,35.64
2019-01-30T14:23:47.457Z,35.64
2019-01-30T14:23:47.622Z,35.64
2019-01-30T14:23:47.787Z,35.64
2019-01-30T14:23:47.963Z,35.64
2019-01-30T14:23:48.264Z,35.64
2019-01-30T14:23:48.482Z,35.64
2019-01-30T14:23:48.657Z,35.64
2019-01-30T14:23:48.823Z,35.64
2019-01-30T14:23:49.001Z,35.64
2019-01-30T14:23:49.173Z,35.64
2019-01-30T14:23:49.340Z,35.64
2019-01-30T14:23:49.508Z,35.64
2019-01-30T14:23:49.672Z,35.64
2019-01-30T14:23:49.845Z,35.64
2019-01-30T14:23:50.048Z,35.64
2019-01-30T14:23:50.261Z,35.64
2019-01-30T14:23:50.425Z,35.64
2019-01-30T14:23:50.591Z,35.64
2019-01-30T14:23:50.753Z,35.64
2019-01-30T14:23:50.920Z,35.64
2019-01-30T14:23:51.090Z,35.64
2019-01-30T14:23:51.255Z,35.64
2019-01-30T14:23:51.451Z,35.64
2019-01-30T14:23:51.622Z,35.64
2019-01-30T14:23:51.810Z,35.64
2019-01-30T14:23:51.986Z,35.64
2019-01-30T14:23:52.153Z,35.64
2019-01-30T14:23:52.315Z,35.64
2019-01-30T14:23:52.478Z,35.64
2019-01-30T14:23:52.644Z,35.64
2019-01-30T14:23:52.847Z,35.55
2019-01-30T14:23:53.011Z,35.55
2019-01-30T14:23:53.250Z,35.64
2019-01-30T14:23:53.412Z,35.64
2019-01-30T14:23:53.585Z,35.64
2019-01-30T14:23:53.749Z,35.64
2019-01-30T14:23:53.912Z,35.64
2019-01-30T14:23:54.076Z,35.55
2019-01-30T14:23:54.244Z,35.55
2019-01-30T14:23:54.414Z,35.64
2019-01-30T14:23:54.576Z,35.55
2019-01-30T14:23:54.759Z,35.64
2019-01-30T14:23:54.923Z,35.64
2019-01-30T14:23:55.087Z,35.64
2019-01-30T14:23:55.254Z,35.64
2019-01-30T14:23:55.413Z,35.55
2019-01-30T14:23:55.579Z,35.64
2019-01-30T14:23:55.740Z,35.64
2019-01-30T14:23:55.904Z,35.64
2019-01-30T14:23:56.066Z,35.55
2019-01-30T14:23:56.234Z,35.55
2019-01-30T14:23:56.405Z,35.64
2019-01-30T14:23:56.570Z,35.64
2019-01-30T14:23:56.734Z,35.64
2019-01-30T14:23:56.924Z,35.55
2019-01-30T14:23:57.094Z,35.55
2019-01-30T14:23:57.256Z,35.55
2019-01-30T14:23:57.443Z,35.55
2019-01-30T14:23:57.634Z,35.55
2019-01-30T14:23:57.891Z,35.55
2019-01-30T14:23:58.080Z,35.55
2019-01-30T14:23:58.257Z,35.55
2019-01-30T14:23:58.425Z,35.55
2019-01-30T14:23:58.586Z,35.55
2019-01-30T14:23:58.753Z,35.55
2019-01-30T14:23:58.914Z,35.55
2019-01-30T14:23:59.077Z,35.55
2019-01-30T14:23:59.244Z,35.55
2019-01-30T14:23:59.452Z,35.55
2019-01-30T14:23:59.653Z,35.55
2019-01-30T14:23:59.820Z,35.55
2019-01-30T14:23:59.982Z,35.55
2019-01-30T14:24:00.164Z,35.55
2019-01-30T14:24:00.367Z,35.55
2019-01-30T14:24:00.536Z,35.55
2019-01-30T14:24:00.704Z,35.55
2019-01-30T14:24:00.868Z,35.55
2019-01-30T14:24:01.031Z,35.55
2019-01-30T14:24:01.196Z,35.55
2019-01-30T14:24:01.357Z,35.55
2019-01-30T14:24:01.580Z,35.55
2019-01-30T14:24:01.867Z,35.55
2019-01-30T14:24:02.038Z,35.55
2019-01-30T14:24:02.203Z,35.55
2019-01-30T14:24:02.386Z,35.55
2019-01-30T14:24:02.547Z,35.55
2019-01-30T14:24:02.717Z,35.55
2019-01-30T14:24:02.879Z,35.55
2019-01-30T14:24:03.085Z,35.55
2019-01-30T14:24:03.245Z,35.55
2019-01-30T14:24:03.413Z,35.55
2019-01-30T14:24:03.621Z,35.55
2019-01-30T14:24:03.788Z,35.55
2019-01-30T14:24:03.960Z,35.55
2019-01-30T14:24:04.149Z,35.55
2019-01-30T14:24:04.315Z,35.55
2019-01-30T14:24:04.481Z,35.55
2019-01-30T14:24:04.646Z,35.55
2019-01-30T14:24:04.823Z,35.55
2019-01-30T14:24:05.093Z,35.55
2019-01-30T14:24:05.299Z,35.55
2019-01-30T14:24:05.471Z,35.55
2019-01-30T14:24:05.691Z,35.55
2019-01-30T14:24:05.864Z,35.55
2019-01-30T14:24:06.035Z,35.55
2019-01-30T14:24:06.236Z,35.55
2019-01-30T14:24:06.417Z,35.55
2019-01-30T14:24:06.600Z,35.55
2019-01-30T14:24:06.776Z,35.55
2019-01-30T14:24:06.938Z,35.55
2019-01-30T14:24:07.102Z,35.55
2019-01-30T14:24:07.280Z,35.55
2019-01-30T14:24:07.442Z,35.55
2019-01-30T14:24:07.652Z,35.55
2019-01-30T14:24:07.861Z,35.55